Terminal Aerodrome Forecast
Issued by NWS Huntsville, AL

Home | Current Version | Previous Version | Text Only | Print | Product List | Glossary On
Versions: 1 2 3 4 5 6 7 8 9 10 11 12 13 14 15 16 17 18 19 20 21 22 23 24
000
FTUS44 KHUN 032337
TAFMSL
TAF
KMSL 032337Z 0400/0424 VRB02KT 6SM -SHRA BKN050 OVC100
     FM040400 12007KT 5SM -SHRA BR BKN020 OVC035
      TEMPO 0409/0413 2SM SHRA BR OVC010
     FM041400 14008KT 4SM -RA BR OVC012=

USA.gov is the U.S. government's official web portal to all federal, state and local government web resources and services.